Terminal Aerodrome Forecast
Issued by NWS Billings, MT

Home | Current Version | Previous Version | Text Only | Print | Product List | Glossary On
Versions: 1 2 3 4 5 6 7 8 9 10 11 12 13
000
FTUS45 KBYZ 241130
TAFMLS
TAF
KMLS 241130Z 2412/2512 22006KT P6SM BKN100
     FM241600 32008KT P6SM BKN100
     FM242200 04006KT P6SM SCT100 BKN200=

USA.gov is the U.S. government's official web portal to all federal, state and local government web resources and services.